My.unforgettable — ZCIZ4 — position and weather

sailwx.info

Track history (hours):
 
Tides and Currents Weather Stations Pressure Air Temp Water Temp Dewpoint Dewpoint Depression Visibility Wind Speed Wind Dir Waves Ship Positions

My.unforgettable

Last reported at 2018-Apr-20 00:09 UTC. Time now 2018-Apr-20 06:49 UTC.
Position N 26°05' W 079°32'.

Length 42 m; draft 2.2 m.

Type: Pleasure craft. MMSI: 319823000.

Date/timePositionNaut miles runAvg speedWind from/ knotsBaromVisibWave heightAir tempDewpointWater temp
2018-Apr-20 00:09N 26°05' W 079°32'1 8.7
2018-Apr-19 23:59N 26°05' W 079°34'4 8.1
2018-Apr-19 23:30N 26°06' W 079°38'4 7.8
2018-Apr-19 23:00N 26°07' W 079°42'4 7.4
2018-Apr-19 22:29N 26°08' W 079°47'3 7.3
2018-Apr-19 22:00N 26°08' W 079°50'4 7.0
2018-Apr-19 21:30N 26°08' W 079°54'4 7.6
2018-Apr-19 21:00N 26°08' W 079°59'3 5.3
2018-Apr-19 20:30N 26°07' W 080°01'3 6.6
2018-Apr-19 20:00N 26°06' W 080°05'2 4.0
2018-Apr-19 19:30N 26°06' W 080°07'2 3.6
2018-Apr-19 19:00N 26°07' W 080°09'2 3.1
2018-Apr-19 18:30N 26°06' W 080°10'1 1.6
2018-Apr-19 18:00N 26°05' W 080°10'0 0.0
2018-Apr-19 17:26N 26°05' W 080°10'0 0.0
2018-Apr-19 16:56N 26°05' W 080°10'0 0.0
2018-Apr-19 16:28N 26°05' W 080°10'0 0.0
2018-Apr-19 15:58N 26°05' W 080°10'0 0.0
2018-Apr-19 15:26N 26°05' W 080°10'0 0.0
2018-Apr-19 14:55N 26°05' W 080°10'0 0.0
2018-Apr-19 14:25N 26°05' W 080°10'0 0.0
2018-Apr-19 13:55N 26°05' W 080°10'0 0.0
2018-Apr-19 13:25N 26°05' W 080°10'0 0.0
2018-Apr-19 12:58N 26°05' W 080°10'0 0.0
2018-Apr-19 12:28N 26°05' W 080°10'0 0.0
2018-Apr-19 11:58N 26°05' W 080°10'0 0.0
2018-Apr-19 11:25N 26°05' W 080°10'0 0.0
2018-Apr-19 10:58N 26°05' W 080°10'0 0.0
2018-Apr-19 10:28N 26°05' W 080°10'0 0.0
2018-Apr-19 09:58N 26°05' W 080°10'0 0.0
2018-Apr-19 09:28N 26°05' W 080°10'0 0.0
2018-Apr-19 08:58N 26°05' W 080°10'0 0.0
2018-Apr-19 08:28N 26°05' W 080°10'0 0.0
2018-Apr-19 07:58N 26°05' W 080°10'0 0.0
2018-Apr-19 07:28N 26°05' W 080°10'0 0.0
2018-Apr-19 06:58N 26°05' W 080°10'0 0.0
2018-Apr-19 06:28N 26°05' W 080°10'0 0.0
2018-Apr-19 05:58N 26°05' W 080°10'0 0.0
2018-Apr-19 05:28N 26°05' W 080°10'0 0.0
2018-Apr-19 04:58N 26°05' W 080°10'0 0.0
2018-Apr-19 04:28N 26°05' W 080°10'0 0.0
2018-Apr-19 03:58N 26°05' W 080°10'0 0.0
2018-Apr-19 03:28N 26°05' W 080°10'0 0.0
2018-Apr-19 02:58N 26°05' W 080°10'0 0.0
2018-Apr-19 02:28N 26°05' W 080°10'0 0.0
2018-Apr-19 01:58N 26°05' W 080°10'0 0.0
2018-Apr-19 01:28N 26°05' W 080°10'0 0.0
2018-Apr-19 00:58N 26°05' W 080°10'0 0.0
2018-Apr-19 00:25N 26°05' W 080°10'0 0.0
2018-Apr-18 23:58N 26°05' W 080°10'0 0.0
2018-Apr-18 23:28N 26°05' W 080°10'0 0.0
2018-Apr-18 22:58N 26°05' W 080°10'0 0.0
2018-Apr-18 22:28N 26°05' W 080°10'0 0.0
2018-Apr-18 21:58N 26°05' W 080°10'0 0.0
2018-Apr-18 21:28N 26°05' W 080°10'0 0.0
2018-Apr-18 20:58N 26°05' W 080°10'0 0.0
2018-Apr-18 20:28N 26°05' W 080°10'0 0.0
2018-Apr-18 19:55N 26°05' W 080°10'0 0.0
2018-Apr-18 19:19N 26°05' W 080°10'0 0.0
2018-Apr-18 18:49N 26°05' W 080°10'0 0.0
2018-Apr-18 18:19N 26°05' W 080°10'0 0.0
2018-Apr-18 17:55N 26°05' W 080°10'0 0.0
2018-Apr-18 17:28N 26°05' W 080°10'0 0.0
2018-Apr-18 16:58N 26°05' W 080°10'0 0.0
2018-Apr-18 16:28N 26°05' W 080°10'0 0.0
2018-Apr-18 15:55N 26°05' W 080°10'0 0.0
2018-Apr-18 15:25N 26°05' W 080°10'0 0.0
2018-Apr-18 14:55N 26°05' W 080°10'0 0.0
2018-Apr-18 14:28N 26°05' W 080°10'0 0.0
2018-Apr-18 13:58N 26°05' W 080°10'0 0.0
2018-Apr-18 13:25N 26°05' W 080°10'0 0.0
2018-Apr-18 12:55N 26°05' W 080°10'0 0.0
2018-Apr-18 12:25N 26°05' W 080°10'0 0.0
2018-Apr-18 11:34N 26°05' W 080°10'0 0.0
2018-Apr-18 11:25N 26°05' W 080°10'0 0.0
2018-Apr-18 10:51N 26°05' W 080°10'0 0.0
2018-Apr-18 10:25N 26°05' W 080°10'0 0.0
2018-Apr-18 09:55N 26°05' W 080°10'0 0.0
2018-Apr-18 09:25N 26°05' W 080°10'0 0.0
2018-Apr-18 08:51N 26°05' W 080°10'0 0.0
2018-Apr-18 08:21N 26°05' W 080°10'0 0.0
2018-Apr-18 07:51N 26°05' W 080°10'0 0.0
2018-Apr-18 07:24N 26°05' W 080°10'0 0.0
2018-Apr-18 06:57N 26°05' W 080°10'0 0.0
2018-Apr-18 06:27N 26°05' W 080°10'0 0.0
2018-Apr-18 05:57N 26°05' W 080°10'0 0.0
2018-Apr-18 05:27N 26°05' W 080°10'0 0.0
2018-Apr-18 04:57N 26°05' W 080°10'0 0.0
2018-Apr-18 04:27N 26°05' W 080°10'0 0.0
2018-Apr-18 04:00N 26°05' W 080°10'0 0.0
2018-Apr-18 03:30N 26°05' W 080°10'0 0.0
2018-Apr-18 03:00N 26°05' W 080°10'0 0.0
2018-Apr-18 02:30N 26°05' W 080°10'0 0.0
2018-Apr-18 02:00N 26°05' W 080°10'0 0.0
2018-Apr-18 01:30N 26°05' W 080°10'0 0.0
2018-Apr-18 01:00N 26°05' W 080°10'0 0.0
2018-Apr-18 00:30N 26°05' W 080°10'0 0.0
2018-Apr-18 00:00N 26°05' W 080°10'0 0.0
2018-Apr-17 23:30N 26°05' W 080°10'0 0.0
2018-Apr-17 23:00N 26°05' W 080°10'0 0.0
2018-Apr-17 22:30N 26°05' W 080°10'0 0.0
2018-Apr-17 22:00N 26°05' W 080°10'0 0.0
2018-Apr-17 21:30N 26°05' W 080°10'0 0.0
2018-Apr-17 21:00N 26°05' W 080°10'0 0.0
2018-Apr-17 20:30N 26°05' W 080°10'0 0.0
2018-Apr-17 20:00N 26°05' W 080°10'0 0.0
2018-Apr-17 19:30N 26°05' W 080°10'0 0.0
2018-Apr-17 19:00N 26°05' W 080°10'0 0.0
2018-Apr-17 18:30N 26°05' W 080°10'0 0.0
2018-Apr-17 18:00N 26°05' W 080°10'0 0.0
2018-Apr-17 17:30N 26°05' W 080°10'0 0.0
2018-Apr-17 17:00N 26°05' W 080°10'0 0.0
2018-Apr-17 16:30N 26°05' W 080°10'0 0.0
2018-Apr-17 16:00N 26°05' W 080°10'0 0.0
2018-Apr-17 15:30N 26°05' W 080°10'0 0.0
2018-Apr-17 15:00N 26°05' W 080°10'0 0.0
2018-Apr-17 14:30N 26°05' W 080°10'0 0.0
2018-Apr-17 13:57N 26°05' W 080°10'0 0.0
2018-Apr-17 13:30N 26°05' W 080°10'0 0.0
2018-Apr-17 13:00N 26°05' W 080°10'0 0.0
2018-Apr-17 12:24N 26°05' W 080°10'0 0.0
2018-Apr-17 12:00N 26°05' W 080°10'0 0.0
2018-Apr-17 11:21N 26°05' W 080°10'0 0.0
2018-Apr-17 10:54N 26°05' W 080°10'0 0.0
2018-Apr-17 10:24N 26°05' W 080°10'0 0.0
2018-Apr-17 09:51N 26°05' W 080°10'0 0.0
2018-Apr-17 09:24N 26°05' W 080°10'0 0.0
2018-Apr-17 08:54N 26°05' W 080°10'0 0.0
2018-Apr-17 08:24N 26°05' W 080°10'0 0.0
2018-Apr-17 07:51N 26°05' W 080°10'0 0.0
2018-Apr-17 07:24N 26°05' W 080°10'0 0.0
2018-Apr-17 06:54N 26°05' W 080°10'0 0.0
2018-Apr-17 06:24N 26°05' W 080°10'0 0.0
2018-Apr-17 05:54N 26°05' W 080°10'0 0.0
2018-Apr-17 05:27N 26°05' W 080°10'0 0.0
2018-Apr-17 04:57N 26°05' W 080°10'0 0.0
2018-Apr-17 04:30N 26°05' W 080°10'0 0.0
2018-Apr-17 03:57N 26°05' W 080°10'0 0.0
2018-Apr-17 03:27N 26°05' W 080°10'0 0.0
2018-Apr-17 02:57N 26°05' W 080°10'0 0.0
2018-Apr-17 02:27N 26°05' W 080°10'0 0.0
2018-Apr-17 01:53N 26°05' W 080°10'0 0.0
2018-Apr-17 01:11N 26°05' W 080°10'0 0.0
2018-Apr-17 00:56N 26°05' W 080°10'0 0.0
2018-Apr-17 00:26N 26°05' W 080°10'0 0.0
2018-Apr-16 23:56N 26°05' W 080°10'0 0.0
2018-Apr-16 23:29N 26°05' W 080°10'0 0.0
2018-Apr-16 22:59N 26°05' W 080°10'0 0.0
2018-Apr-16 22:29N 26°05' W 080°10'0 0.0
2018-Apr-16 21:59N 26°05' W 080°10'0 0.0
2018-Apr-16 21:29N 26°05' W 080°10'0 0.0
2018-Apr-16 20:59N 26°05' W 080°10'0 0.0
2018-Apr-16 20:29N 26°05' W 080°10'0 0.0
2018-Apr-16 19:59N 26°05' W 080°10'0 0.0
2018-Apr-16 19:23N 26°05' W 080°10'0 0.0
2018-Apr-16 18:59N 26°05' W 080°10'0 0.0
2018-Apr-16 18:29N 26°05' W 080°10'0 0.0
2018-Apr-16 17:53N 26°05' W 080°10'0 0.0
2018-Apr-16 17:29N 26°05' W 080°10'0 0.0
2018-Apr-16 16:59N 26°05' W 080°10'0 0.0
2018-Apr-16 16:29N 26°05' W 080°10'0 0.0
2018-Apr-16 15:59N 26°05' W 080°10'0 0.0
2018-Apr-16 15:29N 26°05' W 080°10'0 0.0
2018-Apr-16 14:59N 26°05' W 080°10'0 0.0
2018-Apr-16 14:29N 26°05' W 080°10'0 0.0
2018-Apr-16 13:50N 26°05' W 080°10'0 0.0
2018-Apr-16 13:29N 26°05' W 080°10'0 0.0
2018-Apr-16 12:59N 26°05' W 080°10'0 0.0
2018-Apr-16 12:29N 26°05' W 080°10'0 0.0
2018-Apr-16 11:59N 26°05' W 080°10'0 0.0
2018-Apr-16 11:29N 26°05' W 080°10'0 0.0
2018-Apr-16 10:59N 26°05' W 080°10'0 0.0
2018-Apr-16 10:29N 26°05' W 080°10'0 0.0
2018-Apr-16 09:53N 26°05' W 080°10'0 0.0
2018-Apr-16 09:29N 26°05' W 080°10'0 0.0
2018-Apr-16 08:59N 26°05' W 080°10'0 0.0
2018-Apr-16 08:29N 26°05' W 080°10'0 0.0
2018-Apr-16 07:59N 26°05' W 080°10'0 0.0
2018-Apr-16 07:29N 26°05' W 080°10'0 0.0
2018-Apr-16 06:59N 26°05' W 080°10'0 0.0
2018-Apr-16 06:29N 26°05' W 080°10'0 0.0
2018-Apr-16 05:59N 26°05' W 080°10'0 0.0
2018-Apr-16 05:29N 26°05' W 080°10'0 0.0
2018-Apr-16 04:59N 26°05' W 080°10'0 0.0
2018-Apr-16 04:29N 26°05' W 080°10'0 0.0
2018-Apr-16 03:59N 26°05' W 080°10'0 0.0
2018-Apr-16 03:29N 26°05' W 080°10'0 0.0
2018-Apr-16 02:59N 26°05' W 080°10'0 0.0
2018-Apr-16 02:26N 26°05' W 080°10'0 0.0
2018-Apr-16 01:56N 26°05' W 080°10'0 0.0
2018-Apr-16 01:26N 26°05' W 080°10'0 0.0
2018-Apr-16 00:56N 26°05' W 080°10'0 0.0
2018-Apr-16 00:26N 26°05' W 080°10'0 0.0
2018-Apr-15 23:56N 26°05' W 080°10'0 0.0
2018-Apr-15 23:29N 26°05' W 080°10'0 0.0
2018-Apr-15 22:53N 26°05' W 080°10'0 0.0
2018-Apr-15 22:26N 26°05' W 080°10'0 0.0
2018-Apr-15 21:56N 26°05' W 080°10'0 0.0
2018-Apr-15 21:26N 26°05' W 080°10'0 0.0
2018-Apr-15 20:56N 26°05' W 080°10'0 0.0
2018-Apr-15 20:29N 26°05' W 080°10'0 0.0
2018-Apr-15 19:59N 26°05' W 080°10'0 0.0
2018-Apr-15 19:29N 26°05' W 080°10'0 0.0
2018-Apr-15 18:58N 26°05' W 080°10'0 0.0
2018-Apr-15 18:28N 26°05' W 080°10'0 0.0
2018-Apr-15 17:58N 26°05' W 080°10'0 0.0
2018-Apr-15 17:28N 26°05' W 080°10'0 0.0
2018-Apr-15 16:58N 26°05' W 080°10'0 0.0
2018-Apr-15 16:28N 26°05' W 080°10'0 0.0
2018-Apr-15 15:58N 26°05' W 080°10'0 0.0
2018-Apr-15 15:28N 26°05' W 080°10'0 0.0
2018-Apr-15 14:43N 26°05' W 080°10'0 0.0
2018-Apr-15 14:28N 26°05' W 080°10'0 0.0
2018-Apr-15 13:58N 26°05' W 080°10'0 0.0
2018-Apr-15 13:28N 26°05' W 080°10'0 0.0
2018-Apr-15 12:58N 26°05' W 080°10'0 0.0
2018-Apr-15 12:28N 26°05' W 080°10'0 0.0
2018-Apr-15 11:58N 26°05' W 080°10'0 0.0
2018-Apr-15 11:28N 26°05' W 080°10'0 0.0
2018-Apr-15 10:58N 26°05' W 080°10'0 0.0
2018-Apr-15 10:19N 26°05' W 080°10'0 0.0
2018-Apr-15 09:58N 26°05' W 080°10'0 0.0
2018-Apr-15 09:19N 26°05' W 080°10'0 0.0
2018-Apr-15 08:58N 26°05' W 080°10'0 0.0
2018-Apr-15 08:28N 26°05' W 080°10'0 0.0
2018-Apr-15 07:58N 26°05' W 080°10'0 0.0
2018-Apr-15 07:19N 26°05' W 080°10'0 0.0
2018-Apr-15 06:58N 26°05' W 080°10'0 0.0
2018-Apr-15 06:28N 26°05' W 080°10'0 0.0
2018-Apr-15 05:58N 26°05' W 080°10'0 0.0
2018-Apr-15 05:28N 26°05' W 080°10'0 0.0
2018-Apr-15 04:52N 26°05' W 080°10'0 0.0
2018-Apr-15 04:19N 26°05' W 080°10'0 0.0
2018-Apr-15 03:58N 26°05' W 080°10'0 0.0
2018-Apr-15 03:19N 26°05' W 080°10'0 0.0
2018-Apr-15 02:58N 26°05' W 080°10'0 0.0
2018-Apr-15 02:19N 26°05' W 080°10'0 0.0
2018-Apr-15 01:52N 26°05' W 080°10'0 0.0
2018-Apr-15 01:28N 26°05' W 080°10'0 0.0
2018-Apr-15 00:55N 26°05' W 080°10'0 0.0
2018-Apr-15 00:25N 26°05' W 080°10'0 0.0
2018-Apr-14 23:55N 26°05' W 080°10'0 0.0
2018-Apr-14 23:25N 26°05' W 080°10'0 0.0
2018-Apr-14 22:55N 26°05' W 080°10'0 0.0
2018-Apr-14 22:25N 26°05' W 080°10'0 0.0
2018-Apr-14 21:55N 26°05' W 080°10'0 0.0
2018-Apr-14 21:25N 26°05' W 080°10'0 0.0
2018-Apr-14 20:58N 26°05' W 080°10'0 0.0
2018-Apr-14 20:25N 26°05' W 080°10'0 0.0
2018-Apr-14 19:55N 26°05' W 080°10'0 0.0
2018-Apr-14 19:25N 26°05' W 080°10'0 0.0
2018-Apr-14 18:55N 26°05' W 080°10'0 0.0
2018-Apr-14 18:25N 26°05' W 080°10'0 0.0
2018-Apr-14 17:52N 26°05' W 080°10'0 0.0
2018-Apr-14 17:25N 26°05' W 080°10'0 0.0
2018-Apr-14 16:55N 26°05' W 080°10'0 0.0
2018-Apr-14 16:28N 26°05' W 080°10'0 0.0
2018-Apr-14 15:58N 26°05' W 080°10'0 0.0
2018-Apr-14 15:28N 26°05' W 080°10'0 0.0
2018-Apr-14 14:58N 26°05' W 080°10'0 0.0
2018-Apr-14 14:28N 26°05' W 080°10'0 0.0
2018-Apr-14 13:58N 26°05' W 080°10'0 0.0
2018-Apr-14 13:28N 26°05' W 080°10'0 0.0
2018-Apr-14 12:57N 26°05' W 080°10'0 0.0
2018-Apr-14 12:27N 26°05' W 080°10'0 0.0
2018-Apr-14 11:57N 26°05' W 080°10'0 0.0
2018-Apr-14 11:27N 26°05' W 080°10'0 0.0
2018-Apr-14 11:01N 26°05' W 080°10'0 0.0
2018-Apr-14 10:31N 26°05' W 080°10'0 0.0
2018-Apr-14 10:00N 26°05' W 080°10'0 0.0
2018-Apr-14 09:30N 26°05' W 080°10'0 0.0
2018-Apr-14 09:00N 26°05' W 080°10'0 0.0
2018-Apr-14 08:30N 26°05' W 080°10'0 0.0
2018-Apr-14 08:00N 26°05' W 080°10'0 0.0
2018-Apr-14 07:30N 26°05' W 080°10'0 0.0
2018-Apr-14 06:57N 26°05' W 080°10'0 0.0
2018-Apr-14 06:30N 26°05' W 080°10'0 0.0
2018-Apr-14 06:00N 26°05' W 080°10'0 0.0
2018-Apr-14 05:30N 26°05' W 080°10'0 0.0
2018-Apr-14 05:00N 26°05' W 080°10'0 0.0
2018-Apr-14 04:30N 26°05' W 080°10'0 0.0
2018-Apr-14 04:00N 26°05' W 080°10'0 0.0
2018-Apr-14 03:30N 26°05' W 080°10'0 0.0
2018-Apr-14 03:00N 26°05' W 080°10'0 0.0
2018-Apr-14 02:27N 26°05' W 080°10'0 0.0
2018-Apr-14 02:00N 26°05' W 080°10'0 0.0
2018-Apr-14 01:30N 26°05' W 080°10'0 0.0
2018-Apr-14 01:00N 26°05' W 080°10'0 0.0
2018-Apr-14 00:30N 26°05' W 080°10'0 0.0
2018-Apr-14 00:00N 26°05' W 080°10'0 0.0
2018-Apr-13 23:30N 26°05' W 080°10'0 0.0
2018-Apr-13 22:57N 26°05' W 080°10'0 0.0
2018-Apr-13 22:27N 26°05' W 080°10'0 0.0
2018-Apr-13 21:57N 26°05' W 080°10'0 0.0
2018-Apr-13 21:27N 26°05' W 080°10'0 0.0
2018-Apr-13 20:57N 26°05' W 080°10'0 0.0
2018-Apr-13 20:24N 26°05' W 080°10'0 0.0
2018-Apr-13 19:57N 26°05' W 080°10'0 0.0
2018-Apr-13 19:24N 26°05' W 080°10'0 0.0
2018-Apr-13 18:57N 26°05' W 080°10'0 0.0
2018-Apr-13 18:24N 26°05' W 080°10'0 0.0
2018-Apr-13 17:54N 26°05' W 080°10'0 0.0
2018-Apr-13 17:24N 26°05' W 080°10'0 0.0
2018-Apr-13 16:51N 26°05' W 080°10'0 0.0
2018-Apr-13 16:21N 26°05' W 080°10'0 0.0
2018-Apr-13 15:54N 26°05' W 080°10'0 0.0
2018-Apr-13 15:27N 26°05' W 080°10'0 0.0
2018-Apr-13 14:54N 26°05' W 080°10'0 0.0
2018-Apr-13 14:27N 26°05' W 080°10'0 0.0
2018-Apr-13 13:57N 26°05' W 080°10'0 0.0
2018-Apr-13 13:24N 26°05' W 080°10'0 0.0
2018-Apr-13 12:57N 26°05' W 080°10'0 0.0
2018-Apr-13 12:27N 26°05' W 080°10'0 0.0
2018-Apr-13 11:57N 26°05' W 080°10'0 0.0
2018-Apr-13 11:27N 26°05' W 080°10'0 0.0
2018-Apr-13 10:57N 26°05' W 080°10'0 0.0
2018-Apr-13 10:27N 26°05' W 080°10'0 0.0
2018-Apr-13 09:57N 26°05' W 080°10'0 0.0
2018-Apr-13 09:27N 26°05' W 080°10'0 0.0
2018-Apr-13 09:00N 26°05' W 080°10'0 0.0
2018-Apr-13 08:30N 26°05' W 080°10'0 0.0
2018-Apr-13 08:00N 26°05' W 080°10'0 0.0
2018-Apr-13 07:30N 26°05' W 080°10'0 0.0
2018-Apr-13 07:00N 26°05' W 080°10'0 0.0
2018-Apr-13 06:27N 26°05' W 080°10'0 0.0
2018-Apr-13 06:00N 26°05' W 080°10'0 0.0
2018-Apr-13 05:30N 26°05' W 080°10'0 0.0
2018-Apr-13 05:00N 26°05' W 080°10'0 0.0
2018-Apr-13 04:30N 26°05' W 080°10'0 0.0
2018-Apr-13 04:00N 26°05' W 080°10'0 0.0
2018-Apr-13 03:30N 26°05' W 080°10'0 0.0
2018-Apr-13 02:59N 26°05' W 080°10'0 0.0
2018-Apr-13 02:29N 26°05' W 080°10'0 0.0
2018-Apr-13 01:59N 26°05' W 080°10'0 0.0
2018-Apr-13 01:26N 26°05' W 080°10'0 0.0
2018-Apr-13 00:59N 26°05' W 080°10'0 0.0
2018-Apr-13 00:29N 26°05' W 080°10'0 0.0
2018-Apr-12 23:59N 26°05' W 080°10'0 0.0
2018-Apr-12 23:29N 26°05' W 080°10'0 0.0
2018-Apr-12 22:47N 26°05' W 080°10'0 0.0
2018-Apr-12 22:14N 26°05' W 080°10'0 0.0
2018-Apr-12 21:59N 26°05' W 080°10'0 0.0
2018-Apr-12 21:29N 26°05' W 080°10'0 0.0
2018-Apr-12 20:59N 26°05' W 080°10'0 0.0
2018-Apr-12 20:29N 26°05' W 080°10'0 0.0
2018-Apr-12 19:59N 26°05' W 080°10'0 0.0
2018-Apr-12 19:26N 26°05' W 080°10'0 0.0
2018-Apr-12 18:50N 26°05' W 080°10'0 0.0
2018-Apr-12 18:20N 26°05' W 080°10'0 0.0
2018-Apr-12 17:47N 26°05' W 080°10'0 0.0
2018-Apr-12 17:20N 26°05' W 080°10'0 0.0
2018-Apr-12 16:53N 26°05' W 080°10'0 0.0
2018-Apr-12 16:23N 26°05' W 080°10'0 0.0
2018-Apr-12 15:56N 26°05' W 080°10'0 0.0
2018-Apr-12 15:26N 26°05' W 080°10'0 0.0
2018-Apr-12 14:56N 26°05' W 080°10'0 0.0
2018-Apr-12 14:26N 26°05' W 080°10'0 0.0
2018-Apr-12 13:59N 26°05' W 080°10'0 0.0
2018-Apr-12 13:29N 26°05' W 080°10'0 0.0
2018-Apr-12 12:50N 26°05' W 080°10'0 0.0
2018-Apr-12 12:23N 26°05' W 080°10'0 0.0
2018-Apr-12 11:53N 26°05' W 080°10'0 0.0
2018-Apr-12 11:23N 26°05' W 080°10'0 0.0
2018-Apr-12 10:53N 26°05' W 080°10'0 0.0
2018-Apr-12 10:23N 26°05' W 080°10'0 0.0
2018-Apr-12 09:56N 26°05' W 080°10'0 0.0
2018-Apr-12 09:26N 26°05' W 080°10'0 0.0
2018-Apr-12 08:56N 26°05' W 080°10'0 0.0
2018-Apr-12 08:26N 26°05' W 080°10'0 0.0
2018-Apr-12 07:56N 26°05' W 080°10'0 0.0
2018-Apr-12 07:26N 26°05' W 080°10'0 0.0
2018-Apr-12 06:56N 26°05' W 080°10'0 0.0
2018-Apr-12 06:23N 26°05' W 080°10'0 0.0
2018-Apr-12 05:56N 26°05' W 080°10'0 0.0
2018-Apr-12 05:29N 26°05' W 080°10'0 0.0
2018-Apr-12 04:56N 26°05' W 080°10'0 0.0
2018-Apr-12 04:29N 26°05' W 080°10'0 0.0
2018-Apr-12 03:59N 26°05' W 080°10'0 0.0
2018-Apr-12 03:29N 26°05' W 080°10'0 0.0
2018-Apr-12 02:59N 26°05' W 080°10'0 0.0
2018-Apr-12 02:29N 26°05' W 080°10'0 0.0
2018-Apr-12 01:59N 26°05' W 080°10'0 0.0
2018-Apr-12 01:29N 26°05' W 080°10'0 0.0
2018-Apr-12 00:59N 26°05' W 080°10'0 0.0
2018-Apr-12 00:29N 26°05' W 080°10'0 0.0
2018-Apr-11 23:59N 26°05' W 080°10'0 0.0
2018-Apr-11 23:29N 26°05' W 080°10'0 0.0
2018-Apr-11 22:56N 26°05' W 080°10'0 0.0
2018-Apr-11 22:29N 26°05' W 080°10'0 0.0
2018-Apr-11 21:58N 26°05' W 080°10'0 0.0
2018-Apr-11 21:28N 26°05' W 080°10'0 0.0
2018-Apr-11 20:58N 26°05' W 080°10'0 0.0
2018-Apr-11 20:28N 26°05' W 080°10'0 0.0
2018-Apr-11 19:46N 26°05' W 080°10'0 0.0
2018-Apr-11 19:28N 26°05' W 080°10'0 0.0
2018-Apr-11 18:58N 26°05' W 080°10'0 0.0
2018-Apr-11 18:28N 26°05' W 080°10'0 0.0
2018-Apr-11 17:58N 26°05' W 080°10'0 0.0
2018-Apr-11 17:28N 26°05' W 080°10'0 0.0
2018-Apr-11 16:49N 26°05' W 080°10'0 0.0
2018-Apr-11 16:28N 26°05' W 080°10'0 0.0
2018-Apr-11 15:49N 26°05' W 080°10'0 0.0
2018-Apr-11 15:25N 26°05' W 080°10'0 0.0
2018-Apr-11 14:49N 26°05' W 080°10'0 0.0
2018-Apr-11 14:25N 26°05' W 080°10'0 0.0
2018-Apr-11 13:58N 26°05' W 080°10'0 0.0
2018-Apr-11 13:28N 26°05' W 080°10'0 0.0
2018-Apr-11 12:49N 26°05' W 080°10'0 0.0
2018-Apr-11 12:25N 26°05' W 080°10'0 0.0
2018-Apr-11 11:52N 26°05' W 080°10'0 0.0
2018-Apr-11 11:22N 26°05' W 080°10'0 0.0
2018-Apr-11 10:52N 26°05' W 080°10'0 0.0
2018-Apr-11 10:22N 26°05' W 080°10'0 0.0
2018-Apr-11 09:52N 26°05' W 080°10'0 0.0
2018-Apr-11 09:19N 26°05' W 080°10'0 0.0
2018-Apr-11 08:49N 26°05' W 080°10'0 0.0
2018-Apr-11 08:22N 26°05' W 080°10'0 0.0
2018-Apr-11 07:52N 26°05' W 080°10'0 0.0
2018-Apr-11 07:25N 26°05' W 080°10'0 0.0
2018-Apr-11 06:55N 26°05' W 080°10'0 0.0
2018-Apr-11 06:25N 26°05' W 080°10'0 0.0
2018-Apr-11 05:55N 26°05' W 080°10'0 0.0
2018-Apr-11 05:25N 26°05' W 080°10'0 0.0
2018-Apr-11 04:52N 26°05' W 080°10'0 0.0
2018-Apr-11 04:25N 26°05' W 080°10'0 0.0
2018-Apr-11 03:55N 26°05' W 080°10'0 0.0
2018-Apr-11 03:25N 26°05' W 080°10'0 0.0
2018-Apr-11 02:55N 26°05' W 080°10'0 0.0
2018-Apr-11 02:25N 26°05' W 080°10'0 0.0
2018-Apr-11 00:13N 26°05' W 080°10'0 0.0
2018-Apr-10 22:19N 26°05' W 080°10'0 0.0
2018-Apr-10 20:55N 26°05' W 080°10'0 0.0
2018-Apr-10 20:25N 26°05' W 080°10'0 0.0
2018-Apr-10 19:55N 26°05' W 080°10'0 0.0
2018-Apr-10 19:28N 26°05' W 080°10'0 0.0
2018-Apr-10 18:55N 26°05' W 080°10'0 0.0
2018-Apr-10 18:28N 26°05' W 080°10'0 0.0
2018-Apr-10 17:55N 26°05' W 080°10'0 0.0
2018-Apr-10 17:28N 26°05' W 080°10'0 0.0
2018-Apr-10 16:58N 26°05' W 080°10'0 0.0
2018-Apr-10 16:19N 26°05' W 080°10'0 0.0
2018-Apr-10 15:58N 26°05' W 080°10'0 0.0
2018-Apr-10 15:28N 26°05' W 080°10'0 0.0
2018-Apr-10 14:57N 26°05' W 080°10'0 0.0
2018-Apr-10 14:31N 26°05' W 080°10'0 0.0
2018-Apr-10 14:00N 26°05' W 080°10'0 0.0
2018-Apr-10 13:30N 26°05' W 080°10'0 0.0
2018-Apr-10 13:00N 26°05' W 080°10'0 0.0
2018-Apr-10 12:30N 26°05' W 080°10'0 0.0
2018-Apr-10 12:00N 26°05' W 080°10'0 0.0
2018-Apr-10 11:30N 26°05' W 080°10'0 0.0
2018-Apr-10 11:00N 26°05' W 080°10'0 0.0
2018-Apr-10 10:30N 26°05' W 080°10'0 0.0
2018-Apr-10 10:00N 26°05' W 080°10'0 0.0
2018-Apr-10 09:30N 26°05' W 080°10'0 0.0
2018-Apr-10 09:00N 26°05' W 080°10'0 0.0
2018-Apr-10 08:30N 26°05' W 080°10'0 0.0
2018-Apr-10 08:00N 26°05' W 080°10'0 0.0
2018-Apr-10 07:21N 26°05' W 080°10'0 0.0
2018-Apr-10 07:00N 26°05' W 080°10'0 0.0
2018-Apr-10 06:30N 26°05' W 080°10'0 0.0
2018-Apr-10 06:00N 26°05' W 080°10'0 0.0
2018-Apr-10 05:30N 26°05' W 080°10'0 0.0
2018-Apr-10 05:00N 26°05' W 080°10'0 0.0
2018-Apr-10 04:30N 26°05' W 080°10'0 0.0
2018-Apr-10 04:00N 26°05' W 080°10'0 0.0
2018-Apr-10 03:30N 26°05' W 080°10'0 0.0
2018-Apr-10 03:00N 26°05' W 080°10'0 0.0
2018-Apr-10 02:30N 26°05' W 080°10'0 0.0
2018-Apr-10 01:54N 26°05' W 080°10'0 0.0
2018-Apr-10 01:24N 26°05' W 080°10'0 0.0
2018-Apr-10 01:00N 26°05' W 080°10'0 0.0
2018-Apr-10 00:27N 26°05' W 080°10'  
Track history (hours):
 
Tides and Currents Weather Stations Pressure Air Temp Water Temp Dewpoint Dewpoint Depression Visibility Wind Speed Wind Dir Waves Ship Positions

My.unforgettable

Last reported at 2018-Apr-20 00:09 UTC. Time now 2018-Apr-20 06:49 UTC.
Position N 26°05' W 079°32'.

Length 42 m; draft 2.2 m.

Type: Pleasure craft. MMSI: 319823000.

Date/timePositionNaut miles runAvg speedWind from/ knotsBaromVisibWave heightAir tempDewpointWater temp
2018-Apr-20 00:09N 26°05' W 079°32'1 8.7
2018-Apr-19 23:59N 26°05' W 079°34'4 8.1
2018-Apr-19 23:30N 26°06' W 079°38'4 7.8
2018-Apr-19 23:00N 26°07' W 079°42'4 7.4
2018-Apr-19 22:29N 26°08' W 079°47'3 7.3
2018-Apr-19 22:00N 26°08' W 079°50'4 7.0
2018-Apr-19 21:30N 26°08' W 079°54'4 7.6
2018-Apr-19 21:00N 26°08' W 079°59'3 5.3
2018-Apr-19 20:30N 26°07' W 080°01'3 6.6
2018-Apr-19 20:00N 26°06' W 080°05'2 4.0
2018-Apr-19 19:30N 26°06' W 080°07'2 3.6
2018-Apr-19 19:00N 26°07' W 080°09'2 3.1
2018-Apr-19 18:30N 26°06' W 080°10'1 1.6
2018-Apr-19 18:00N 26°05' W 080°10'0 0.0
2018-Apr-19 17:26N 26°05' W 080°10'0 0.0
2018-Apr-19 16:56N 26°05' W 080°10'0 0.0
2018-Apr-19 16:28N 26°05' W 080°10'0 0.0
2018-Apr-19 15:58N 26°05' W 080°10'0 0.0
2018-Apr-19 15:26N 26°05' W 080°10'0 0.0
2018-Apr-19 14:55N 26°05' W 080°10'0 0.0
2018-Apr-19 14:25N 26°05' W 080°10'0 0.0
2018-Apr-19 13:55N 26°05' W 080°10'0 0.0
2018-Apr-19 13:25N 26°05' W 080°10'0 0.0
2018-Apr-19 12:58N 26°05' W 080°10'0 0.0
2018-Apr-19 12:28N 26°05' W 080°10'0 0.0
2018-Apr-19 11:58N 26°05' W 080°10'0 0.0
2018-Apr-19 11:25N 26°05' W 080°10'0 0.0
2018-Apr-19 10:58N 26°05' W 080°10'0 0.0
2018-Apr-19 10:28N 26°05' W 080°10'0 0.0
2018-Apr-19 09:58N 26°05' W 080°10'0 0.0
2018-Apr-19 09:28N 26°05' W 080°10'0 0.0
2018-Apr-19 08:58N 26°05' W 080°10'0 0.0
2018-Apr-19 08:28N 26°05' W 080°10'0 0.0
2018-Apr-19 07:58N 26°05' W 080°10'0 0.0
2018-Apr-19 07:28N 26°05' W 080°10'0 0.0
2018-Apr-19 06:58N 26°05' W 080°10'0 0.0
2018-Apr-19 06:28N 26°05' W 080°10'0 0.0
2018-Apr-19 05:58N 26°05' W 080°10'0 0.0
2018-Apr-19 05:28N 26°05' W 080°10'0 0.0
2018-Apr-19 04:58N 26°05' W 080°10'0 0.0
2018-Apr-19 04:28N 26°05' W 080°10'0 0.0
2018-Apr-19 03:58N 26°05' W 080°10'0 0.0
2018-Apr-19 03:28N 26°05' W 080°10'0 0.0
2018-Apr-19 02:58N 26°05' W 080°10'0 0.0
2018-Apr-19 02:28N 26°05' W 080°10'0 0.0
2018-Apr-19 01:58N 26°05' W 080°10'0 0.0
2018-Apr-19 01:28N 26°05' W 080°10'0 0.0
2018-Apr-19 00:58N 26°05' W 080°10'0 0.0
2018-Apr-19 00:25N 26°05' W 080°10'0 0.0
2018-Apr-18 23:58N 26°05' W 080°10'0 0.0
2018-Apr-18 23:28N 26°05' W 080°10'0 0.0
2018-Apr-18 22:58N 26°05' W 080°10'0 0.0
2018-Apr-18 22:28N 26°05' W 080°10'0 0.0
2018-Apr-18 21:58N 26°05' W 080°10'0 0.0
2018-Apr-18 21:28N 26°05' W 080°10'0 0.0
2018-Apr-18 20:58N 26°05' W 080°10'0 0.0
2018-Apr-18 20:28N 26°05' W 080°10'0 0.0
2018-Apr-18 19:55N 26°05' W 080°10'0 0.0
2018-Apr-18 19:19N 26°05' W 080°10'0 0.0
2018-Apr-18 18:49N 26°05' W 080°10'0 0.0
2018-Apr-18 18:19N 26°05' W 080°10'0 0.0
2018-Apr-18 17:55N 26°05' W 080°10'0 0.0
2018-Apr-18 17:28N 26°05' W 080°10'0 0.0
2018-Apr-18 16:58N 26°05' W 080°10'0 0.0
2018-Apr-18 16:28N 26°05' W 080°10'0 0.0
2018-Apr-18 15:55N 26°05' W 080°10'0 0.0
2018-Apr-18 15:25N 26°05' W 080°10'0 0.0
2018-Apr-18 14:55N 26°05' W 080°10'0 0.0
2018-Apr-18 14:28N 26°05' W 080°10'0 0.0
2018-Apr-18 13:58N 26°05' W 080°10'0 0.0
2018-Apr-18 13:25N 26°05' W 080°10'0 0.0
2018-Apr-18 12:55N 26°05' W 080°10'0 0.0
2018-Apr-18 12:25N 26°05' W 080°10'0 0.0
2018-Apr-18 11:34N 26°05' W 080°10'0 0.0
2018-Apr-18 11:25N 26°05' W 080°10'0 0.0
2018-Apr-18 10:51N 26°05' W 080°10'0 0.0
2018-Apr-18 10:25N 26°05' W 080°10'0 0.0
2018-Apr-18 09:55N 26°05' W 080°10'0 0.0
2018-Apr-18 09:25N 26°05' W 080°10'0 0.0
2018-Apr-18 08:51N 26°05' W 080°10'0 0.0
2018-Apr-18 08:21N 26°05' W 080°10'0 0.0
2018-Apr-18 07:51N 26°05' W 080°10'0 0.0
2018-Apr-18 07:24N 26°05' W 080°10'0 0.0
2018-Apr-18 06:57N 26°05' W 080°10'0 0.0
2018-Apr-18 06:27N 26°05' W 080°10'0 0.0
2018-Apr-18 05:57N 26°05' W 080°10'0 0.0
2018-Apr-18 05:27N 26°05' W 080°10'0 0.0
2018-Apr-18 04:57N 26°05' W 080°10'0 0.0
2018-Apr-18 04:27N 26°05' W 080°10'0 0.0
2018-Apr-18 04:00N 26°05' W 080°10'0 0.0
2018-Apr-18 03:30N 26°05' W 080°10'0 0.0
2018-Apr-18 03:00N 26°05' W 080°10'0 0.0
2018-Apr-18 02:30N 26°05' W 080°10'0 0.0
2018-Apr-18 02:00N 26°05' W 080°10'0 0.0
2018-Apr-18 01:30N 26°05' W 080°10'0 0.0
2018-Apr-18 01:00N 26°05' W 080°10'0 0.0
2018-Apr-18 00:30N 26°05' W 080°10'0 0.0
2018-Apr-18 00:00N 26°05' W 080°10'0 0.0
2018-Apr-17 23:30N 26°05' W 080°10'0 0.0
2018-Apr-17 23:00N 26°05' W 080°10'0 0.0
2018-Apr-17 22:30N 26°05' W 080°10'0 0.0
2018-Apr-17 22:00N 26°05' W 080°10'0 0.0
2018-Apr-17 21:30N 26°05' W 080°10'0 0.0
2018-Apr-17 21:00N 26°05' W 080°10'0 0.0
2018-Apr-17 20:30N 26°05' W 080°10'0 0.0
2018-Apr-17 20:00N 26°05' W 080°10'0 0.0
2018-Apr-17 19:30N 26°05' W 080°10'0 0.0
2018-Apr-17 19:00N 26°05' W 080°10'0 0.0
2018-Apr-17 18:30N 26°05' W 080°10'0 0.0
2018-Apr-17 18:00N 26°05' W 080°10'0 0.0
2018-Apr-17 17:30N 26°05' W 080°10'0 0.0
2018-Apr-17 17:00N 26°05' W 080°10'0 0.0
2018-Apr-17 16:30N 26°05' W 080°10'0 0.0
2018-Apr-17 16:00N 26°05' W 080°10'0 0.0
2018-Apr-17 15:30N 26°05' W 080°10'0 0.0
2018-Apr-17 15:00N 26°05' W 080°10'0 0.0
2018-Apr-17 14:30N 26°05' W 080°10'0 0.0
2018-Apr-17 13:57N 26°05' W 080°10'0 0.0
2018-Apr-17 13:30N 26°05' W 080°10'0 0.0
2018-Apr-17 13:00N 26°05' W 080°10'0 0.0
2018-Apr-17 12:24N 26°05' W 080°10'0 0.0
2018-Apr-17 12:00N 26°05' W 080°10'0 0.0
2018-Apr-17 11:21N 26°05' W 080°10'0 0.0
2018-Apr-17 10:54N 26°05' W 080°10'0 0.0
2018-Apr-17 10:24N 26°05' W 080°10'0 0.0
2018-Apr-17 09:51N 26°05' W 080°10'0 0.0
2018-Apr-17 09:24N 26°05' W 080°10'0 0.0
2018-Apr-17 08:54N 26°05' W 080°10'0 0.0
2018-Apr-17 08:24N 26°05' W 080°10'0 0.0
2018-Apr-17 07:51N 26°05' W 080°10'0 0.0
2018-Apr-17 07:24N 26°05' W 080°10'0 0.0
2018-Apr-17 06:54N 26°05' W 080°10'0 0.0
2018-Apr-17 06:24N 26°05' W 080°10'0 0.0
2018-Apr-17 05:54N 26°05' W 080°10'0 0.0
2018-Apr-17 05:27N 26°05' W 080°10'0 0.0
2018-Apr-17 04:57N 26°05' W 080°10'0 0.0
2018-Apr-17 04:30N 26°05' W 080°10'0 0.0
2018-Apr-17 03:57N 26°05' W 080°10'0 0.0
2018-Apr-17 03:27N 26°05' W 080°10'0 0.0
2018-Apr-17 02:57N 26°05' W 080°10'0 0.0
2018-Apr-17 02:27N 26°05' W 080°10'0 0.0
2018-Apr-17 01:53N 26°05' W 080°10'0 0.0
2018-Apr-17 01:11N 26°05' W 080°10'0 0.0
2018-Apr-17 00:56N 26°05' W 080°10'0 0.0
2018-Apr-17 00:26N 26°05' W 080°10'0 0.0
2018-Apr-16 23:56N 26°05' W 080°10'0 0.0
2018-Apr-16 23:29N 26°05' W 080°10'0 0.0
2018-Apr-16 22:59N 26°05' W 080°10'0 0.0
2018-Apr-16 22:29N 26°05' W 080°10'0 0.0
2018-Apr-16 21:59N 26°05' W 080°10'0 0.0
2018-Apr-16 21:29N 26°05' W 080°10'0 0.0
2018-Apr-16 20:59N 26°05' W 080°10'0 0.0
2018-Apr-16 20:29N 26°05' W 080°10'0 0.0
2018-Apr-16 19:59N 26°05' W 080°10'0 0.0
2018-Apr-16 19:23N 26°05' W 080°10'0 0.0
2018-Apr-16 18:59N 26°05' W 080°10'0 0.0
2018-Apr-16 18:29N 26°05' W 080°10'0 0.0
2018-Apr-16 17:53N 26°05' W 080°10'0 0.0
2018-Apr-16 17:29N 26°05' W 080°10'0 0.0
2018-Apr-16 16:59N 26°05' W 080°10'0 0.0
2018-Apr-16 16:29N 26°05' W 080°10'0 0.0
2018-Apr-16 15:59N 26°05' W 080°10'0 0.0
2018-Apr-16 15:29N 26°05' W 080°10'0 0.0
2018-Apr-16 14:59N 26°05' W 080°10'0 0.0
2018-Apr-16 14:29N 26°05' W 080°10'0 0.0
2018-Apr-16 13:50N 26°05' W 080°10'0 0.0
2018-Apr-16 13:29N 26°05' W 080°10'0 0.0
2018-Apr-16 12:59N 26°05' W 080°10'0 0.0
2018-Apr-16 12:29N 26°05' W 080°10'0 0.0
2018-Apr-16 11:59N 26°05' W 080°10'0 0.0
2018-Apr-16 11:29N 26°05' W 080°10'0 0.0
2018-Apr-16 10:59N 26°05' W 080°10'0 0.0
2018-Apr-16 10:29N 26°05' W 080°10'0 0.0
2018-Apr-16 09:53N 26°05' W 080°10'0 0.0
2018-Apr-16 09:29N 26°05' W 080°10'0 0.0
2018-Apr-16 08:59N 26°05' W 080°10'0 0.0
2018-Apr-16 08:29N 26°05' W 080°10'0 0.0
2018-Apr-16 07:59N 26°05' W 080°10'0 0.0
2018-Apr-16 07:29N 26°05' W 080°10'0 0.0
2018-Apr-16 06:59N 26°05' W 080°10'0 0.0
2018-Apr-16 06:29N 26°05' W 080°10'0 0.0
2018-Apr-16 05:59N 26°05' W 080°10'0 0.0
2018-Apr-16 05:29N 26°05' W 080°10'0 0.0
2018-Apr-16 04:59N 26°05' W 080°10'0 0.0
2018-Apr-16 04:29N 26°05' W 080°10'0 0.0
2018-Apr-16 03:59N 26°05' W 080°10'0 0.0
2018-Apr-16 03:29N 26°05' W 080°10'0 0.0
2018-Apr-16 02:59N 26°05' W 080°10'0 0.0
2018-Apr-16 02:26N 26°05' W 080°10'0 0.0
2018-Apr-16 01:56N 26°05' W 080°10'0 0.0
2018-Apr-16 01:26N 26°05' W 080°10'0 0.0
2018-Apr-16 00:56N 26°05' W 080°10'0 0.0
2018-Apr-16 00:26N 26°05' W 080°10'0 0.0
2018-Apr-15 23:56N 26°05' W 080°10'0 0.0
2018-Apr-15 23:29N 26°05' W 080°10'0 0.0
2018-Apr-15 22:53N 26°05' W 080°10'0 0.0
2018-Apr-15 22:26N 26°05' W 080°10'0 0.0
2018-Apr-15 21:56N 26°05' W 080°10'0 0.0
2018-Apr-15 21:26N 26°05' W 080°10'0 0.0
2018-Apr-15 20:56N 26°05' W 080°10'0 0.0
2018-Apr-15 20:29N 26°05' W 080°10'0 0.0
2018-Apr-15 19:59N 26°05' W 080°10'0 0.0
2018-Apr-15 19:29N 26°05' W 080°10'0 0.0
2018-Apr-15 18:58N 26°05' W 080°10'0 0.0
2018-Apr-15 18:28N 26°05' W 080°10'0 0.0
2018-Apr-15 17:58N 26°05' W 080°10'0 0.0
2018-Apr-15 17:28N 26°05' W 080°10'0 0.0
2018-Apr-15 16:58N 26°05' W 080°10'0 0.0
2018-Apr-15 16:28N 26°05' W 080°10'0 0.0
2018-Apr-15 15:58N 26°05' W 080°10'0 0.0
2018-Apr-15 15:28N 26°05' W 080°10'0 0.0
2018-Apr-15 14:43N 26°05' W 080°10'0 0.0
2018-Apr-15 14:28N 26°05' W 080°10'0 0.0
2018-Apr-15 13:58N 26°05' W 080°10'0 0.0
2018-Apr-15 13:28N 26°05' W 080°10'0 0.0
2018-Apr-15 12:58N 26°05' W 080°10'0 0.0
2018-Apr-15 12:28N 26°05' W 080°10'0 0.0
2018-Apr-15 11:58N 26°05' W 080°10'0 0.0
2018-Apr-15 11:28N 26°05' W 080°10'0 0.0
2018-Apr-15 10:58N 26°05' W 080°10'0 0.0
2018-Apr-15 10:19N 26°05' W 080°10'0 0.0
2018-Apr-15 09:58N 26°05' W 080°10'0 0.0
2018-Apr-15 09:19N 26°05' W 080°10'0 0.0
2018-Apr-15 08:58N 26°05' W 080°10'0 0.0
2018-Apr-15 08:28N 26°05' W 080°10'0 0.0
2018-Apr-15 07:58N 26°05' W 080°10'0 0.0
2018-Apr-15 07:19N 26°05' W 080°10'0 0.0
2018-Apr-15 06:58N 26°05' W 080°10'0 0.0
2018-Apr-15 06:28N 26°05' W 080°10'0 0.0
2018-Apr-15 05:58N 26°05' W 080°10'0 0.0
2018-Apr-15 05:28N 26°05' W 080°10'0 0.0
2018-Apr-15 04:52N 26°05' W 080°10'0 0.0
2018-Apr-15 04:19N 26°05' W 080°10'0 0.0
2018-Apr-15 03:58N 26°05' W 080°10'0 0.0
2018-Apr-15 03:19N 26°05' W 080°10'0 0.0
2018-Apr-15 02:58N 26°05' W 080°10'0 0.0
2018-Apr-15 02:19N 26°05' W 080°10'0 0.0
2018-Apr-15 01:52N 26°05' W 080°10'0 0.0
2018-Apr-15 01:28N 26°05' W 080°10'0 0.0
2018-Apr-15 00:55N 26°05' W 080°10'0 0.0
2018-Apr-15 00:25N 26°05' W 080°10'0 0.0
2018-Apr-14 23:55N 26°05' W 080°10'0 0.0
2018-Apr-14 23:25N 26°05' W 080°10'0 0.0
2018-Apr-14 22:55N 26°05' W 080°10'0 0.0
2018-Apr-14 22:25N 26°05' W 080°10'0 0.0
2018-Apr-14 21:55N 26°05' W 080°10'0 0.0
2018-Apr-14 21:25N 26°05' W 080°10'0 0.0
2018-Apr-14 20:58N 26°05' W 080°10'0 0.0
2018-Apr-14 20:25N 26°05' W 080°10'0 0.0
2018-Apr-14 19:55N 26°05' W 080°10'0 0.0
2018-Apr-14 19:25N 26°05' W 080°10'0 0.0
2018-Apr-14 18:55N 26°05' W 080°10'0 0.0
2018-Apr-14 18:25N 26°05' W 080°10'0 0.0
2018-Apr-14 17:52N 26°05' W 080°10'0 0.0
2018-Apr-14 17:25N 26°05' W 080°10'0 0.0
2018-Apr-14 16:55N 26°05' W 080°10'0 0.0
2018-Apr-14 16:28N 26°05' W 080°10'0 0.0
2018-Apr-14 15:58N 26°05' W 080°10'0 0.0
2018-Apr-14 15:28N 26°05' W 080°10'0 0.0
2018-Apr-14 14:58N 26°05' W 080°10'0 0.0
2018-Apr-14 14:28N 26°05' W 080°10'0 0.0
2018-Apr-14 13:58N 26°05' W 080°10'0 0.0
2018-Apr-14 13:28N 26°05' W 080°10'0 0.0
2018-Apr-14 12:57N 26°05' W 080°10'0 0.0
2018-Apr-14 12:27N 26°05' W 080°10'0 0.0
2018-Apr-14 11:57N 26°05' W 080°10'0 0.0
2018-Apr-14 11:27N 26°05' W 080°10'0 0.0
2018-Apr-14 11:01N 26°05' W 080°10'0 0.0
2018-Apr-14 10:31N 26°05' W 080°10'0 0.0
2018-Apr-14 10:00N 26°05' W 080°10'0 0.0
2018-Apr-14 09:30N 26°05' W 080°10'0 0.0
2018-Apr-14 09:00N 26°05' W 080°10'0 0.0
2018-Apr-14 08:30N 26°05' W 080°10'0 0.0
2018-Apr-14 08:00N 26°05' W 080°10'0 0.0
2018-Apr-14 07:30N 26°05' W 080°10'0 0.0
2018-Apr-14 06:57N 26°05' W 080°10'0 0.0
2018-Apr-14 06:30N 26°05' W 080°10'0 0.0
2018-Apr-14 06:00N 26°05' W 080°10'0 0.0
2018-Apr-14 05:30N 26°05' W 080°10'0 0.0
2018-Apr-14 05:00N 26°05' W 080°10'0 0.0
2018-Apr-14 04:30N 26°05' W 080°10'0 0.0
2018-Apr-14 04:00N 26°05' W 080°10'0 0.0
2018-Apr-14 03:30N 26°05' W 080°10'0 0.0
2018-Apr-14 03:00N 26°05' W 080°10'0 0.0
2018-Apr-14 02:27N 26°05' W 080°10'0 0.0
2018-Apr-14 02:00N 26°05' W 080°10'0 0.0
2018-Apr-14 01:30N 26°05' W 080°10'0 0.0
2018-Apr-14 01:00N 26°05' W 080°10'0 0.0
2018-Apr-14 00:30N 26°05' W 080°10'0 0.0
2018-Apr-14 00:00N 26°05' W 080°10'0 0.0
2018-Apr-13 23:30N 26°05' W 080°10'0 0.0
2018-Apr-13 22:57N 26°05' W 080°10'0 0.0
2018-Apr-13 22:27N 26°05' W 080°10'0 0.0
2018-Apr-13 21:57N 26°05' W 080°10'0 0.0
2018-Apr-13 21:27N 26°05' W 080°10'0 0.0
2018-Apr-13 20:57N 26°05' W 080°10'0 0.0
2018-Apr-13 20:24N 26°05' W 080°10'0 0.0
2018-Apr-13 19:57N 26°05' W 080°10'0 0.0
2018-Apr-13 19:24N 26°05' W 080°10'0 0.0
2018-Apr-13 18:57N 26°05' W 080°10'0 0.0
2018-Apr-13 18:24N 26°05' W 080°10'0 0.0
2018-Apr-13 17:54N 26°05' W 080°10'0 0.0
2018-Apr-13 17:24N 26°05' W 080°10'0 0.0
2018-Apr-13 16:51N 26°05' W 080°10'0 0.0
2018-Apr-13 16:21N 26°05' W 080°10'0 0.0
2018-Apr-13 15:54N 26°05' W 080°10'0 0.0
2018-Apr-13 15:27N 26°05' W 080°10'0 0.0
2018-Apr-13 14:54N 26°05' W 080°10'0 0.0
2018-Apr-13 14:27N 26°05' W 080°10'0 0.0
2018-Apr-13 13:57N 26°05' W 080°10'0 0.0
2018-Apr-13 13:24N 26°05' W 080°10'0 0.0
2018-Apr-13 12:57N 26°05' W 080°10'0 0.0
2018-Apr-13 12:27N 26°05' W 080°10'0 0.0
2018-Apr-13 11:57N 26°05' W 080°10'0 0.0
2018-Apr-13 11:27N 26°05' W 080°10'0 0.0
2018-Apr-13 10:57N 26°05' W 080°10'0 0.0
2018-Apr-13 10:27N 26°05' W 080°10'0 0.0
2018-Apr-13 09:57N 26°05' W 080°10'0 0.0
2018-Apr-13 09:27N 26°05' W 080°10'0 0.0
2018-Apr-13 09:00N 26°05' W 080°10'0 0.0
2018-Apr-13 08:30N 26°05' W 080°10'0 0.0
2018-Apr-13 08:00N 26°05' W 080°10'0 0.0
2018-Apr-13 07:30N 26°05' W 080°10'0 0.0
2018-Apr-13 07:00N 26°05' W 080°10'0 0.0
2018-Apr-13 06:27N 26°05' W 080°10'0 0.0
2018-Apr-13 06:00N 26°05' W 080°10'0 0.0
2018-Apr-13 05:30N 26°05' W 080°10'0 0.0
2018-Apr-13 05:00N 26°05' W 080°10'0 0.0
2018-Apr-13 04:30N 26°05' W 080°10'0 0.0
2018-Apr-13 04:00N 26°05' W 080°10'0 0.0
2018-Apr-13 03:30N 26°05' W 080°10'0 0.0
2018-Apr-13 02:59N 26°05' W 080°10'0 0.0
2018-Apr-13 02:29N 26°05' W 080°10'0 0.0
2018-Apr-13 01:59N 26°05' W 080°10'0 0.0
2018-Apr-13 01:26N 26°05' W 080°10'0 0.0
2018-Apr-13 00:59N 26°05' W 080°10'0 0.0
2018-Apr-13 00:29N 26°05' W 080°10'0 0.0
2018-Apr-12 23:59N 26°05' W 080°10'0 0.0
2018-Apr-12 23:29N 26°05' W 080°10'0 0.0
2018-Apr-12 22:47N 26°05' W 080°10'0 0.0
2018-Apr-12 22:14N 26°05' W 080°10'0 0.0
2018-Apr-12 21:59N 26°05' W 080°10'0 0.0
2018-Apr-12 21:29N 26°05' W 080°10'0 0.0
2018-Apr-12 20:59N 26°05' W 080°10'0 0.0
2018-Apr-12 20:29N 26°05' W 080°10'0 0.0
2018-Apr-12 19:59N 26°05' W 080°10'0 0.0
2018-Apr-12 19:26N 26°05' W 080°10'0 0.0
2018-Apr-12 18:50N 26°05' W 080°10'0 0.0
2018-Apr-12 18:20N 26°05' W 080°10'0 0.0
2018-Apr-12 17:47N 26°05' W 080°10'0 0.0
2018-Apr-12 17:20N 26°05' W 080°10'0 0.0
2018-Apr-12 16:53N 26°05' W 080°10'0 0.0
2018-Apr-12 16:23N 26°05' W 080°10'0 0.0
2018-Apr-12 15:56N 26°05' W 080°10'0 0.0
2018-Apr-12 15:26N 26°05' W 080°10'0 0.0
2018-Apr-12 14:56N 26°05' W 080°10'0 0.0
2018-Apr-12 14:26N 26°05' W 080°10'0 0.0
2018-Apr-12 13:59N 26°05' W 080°10'0 0.0
2018-Apr-12 13:29N 26°05' W 080°10'0 0.0
2018-Apr-12 12:50N 26°05' W 080°10'0 0.0
2018-Apr-12 12:23N 26°05' W 080°10'0 0.0
2018-Apr-12 11:53N 26°05' W 080°10'0 0.0
2018-Apr-12 11:23N 26°05' W 080°10'0 0.0
2018-Apr-12 10:53N 26°05' W 080°10'0 0.0
2018-Apr-12 10:23N 26°05' W 080°10'0 0.0
2018-Apr-12 09:56N 26°05' W 080°10'0 0.0
2018-Apr-12 09:26N 26°05' W 080°10'0 0.0
2018-Apr-12 08:56N 26°05' W 080°10'0 0.0
2018-Apr-12 08:26N 26°05' W 080°10'0 0.0
2018-Apr-12 07:56N 26°05' W 080°10'0 0.0
2018-Apr-12 07:26N 26°05' W 080°10'0 0.0
2018-Apr-12 06:56N 26°05' W 080°10'0 0.0
2018-Apr-12 06:23N 26°05' W 080°10'0 0.0
2018-Apr-12 05:56N 26°05' W 080°10'0 0.0
2018-Apr-12 05:29N 26°05' W 080°10'0 0.0
2018-Apr-12 04:56N 26°05' W 080°10'0 0.0
2018-Apr-12 04:29N 26°05' W 080°10'0 0.0
2018-Apr-12 03:59N 26°05' W 080°10'0 0.0
2018-Apr-12 03:29N 26°05' W 080°10'0 0.0
2018-Apr-12 02:59N 26°05' W 080°10'0 0.0
2018-Apr-12 02:29N 26°05' W 080°10'0 0.0
2018-Apr-12 01:59N 26°05' W 080°10'0 0.0
2018-Apr-12 01:29N 26°05' W 080°10'0 0.0
2018-Apr-12 00:59N 26°05' W 080°10'0 0.0
2018-Apr-12 00:29N 26°05' W 080°10'0 0.0
2018-Apr-11 23:59N 26°05' W 080°10'0 0.0
2018-Apr-11 23:29N 26°05' W 080°10'0 0.0
2018-Apr-11 22:56N 26°05' W 080°10'0 0.0
2018-Apr-11 22:29N 26°05' W 080°10'0 0.0
2018-Apr-11 21:58N 26°05' W 080°10'0 0.0
2018-Apr-11 21:28N 26°05' W 080°10'0 0.0
2018-Apr-11 20:58N 26°05' W 080°10'0 0.0
2018-Apr-11 20:28N 26°05' W 080°10'0 0.0
2018-Apr-11 19:46N 26°05' W 080°10'0 0.0
2018-Apr-11 19:28N 26°05' W 080°10'0 0.0
2018-Apr-11 18:58N 26°05' W 080°10'0 0.0
2018-Apr-11 18:28N 26°05' W 080°10'0 0.0
2018-Apr-11 17:58N 26°05' W 080°10'0 0.0
2018-Apr-11 17:28N 26°05' W 080°10'0 0.0
2018-Apr-11 16:49N 26°05' W 080°10'0 0.0
2018-Apr-11 16:28N 26°05' W 080°10'0 0.0
2018-Apr-11 15:49N 26°05' W 080°10'0 0.0
2018-Apr-11 15:25N 26°05' W 080°10'0 0.0
2018-Apr-11 14:49N 26°05' W 080°10'0 0.0
2018-Apr-11 14:25N 26°05' W 080°10'0 0.0
2018-Apr-11 13:58N 26°05' W 080°10'0 0.0
2018-Apr-11 13:28N 26°05' W 080°10'0 0.0
2018-Apr-11 12:49N 26°05' W 080°10'0 0.0
2018-Apr-11 12:25N 26°05' W 080°10'0 0.0
2018-Apr-11 11:52N 26°05' W 080°10'0 0.0
2018-Apr-11 11:22N 26°05' W 080°10'0 0.0
2018-Apr-11 10:52N 26°05' W 080°10'0 0.0
2018-Apr-11 10:22N 26°05' W 080°10'0 0.0
2018-Apr-11 09:52N 26°05' W 080°10'0 0.0
2018-Apr-11 09:19N 26°05' W 080°10'0 0.0
2018-Apr-11 08:49N 26°05' W 080°10'0 0.0
2018-Apr-11 08:22N 26°05' W 080°10'0 0.0
2018-Apr-11 07:52N 26°05' W 080°10'0 0.0
2018-Apr-11 07:25N 26°05' W 080°10'0 0.0
2018-Apr-11 06:55N 26°05' W 080°10'0 0.0
2018-Apr-11 06:25N 26°05' W 080°10'0 0.0
2018-Apr-11 05:55N 26°05' W 080°10'0 0.0
2018-Apr-11 05:25N 26°05' W 080°10'0 0.0
2018-Apr-11 04:52N 26°05' W 080°10'0 0.0
2018-Apr-11 04:25N 26°05' W 080°10'0 0.0
2018-Apr-11 03:55N 26°05' W 080°10'0 0.0
2018-Apr-11 03:25N 26°05' W 080°10'0 0.0
2018-Apr-11 02:55N 26°05' W 080°10'0 0.0
2018-Apr-11 02:25N 26°05' W 080°10'0 0.0
2018-Apr-11 00:13N 26°05' W 080°10'0 0.0
2018-Apr-10 22:19N 26°05' W 080°10'0 0.0
2018-Apr-10 20:55N 26°05' W 080°10'0 0.0
2018-Apr-10 20:25N 26°05' W 080°10'0 0.0
2018-Apr-10 19:55N 26°05' W 080°10'0 0.0
2018-Apr-10 19:28N 26°05' W 080°10'0 0.0
2018-Apr-10 18:55N 26°05' W 080°10'0 0.0
2018-Apr-10 18:28N 26°05' W 080°10'0 0.0
2018-Apr-10 17:55N 26°05' W 080°10'0 0.0
2018-Apr-10 17:28N 26°05' W 080°10'0 0.0
2018-Apr-10 16:58N 26°05' W 080°10'0 0.0
2018-Apr-10 16:19N 26°05' W 080°10'0 0.0
2018-Apr-10 15:58N 26°05' W 080°10'0 0.0
2018-Apr-10 15:28N 26°05' W 080°10'0 0.0
2018-Apr-10 14:57N 26°05' W 080°10'0 0.0
2018-Apr-10 14:31N 26°05' W 080°10'0 0.0
2018-Apr-10 14:00N 26°05' W 080°10'0 0.0
2018-Apr-10 13:30N 26°05' W 080°10'0 0.0
2018-Apr-10 13:00N 26°05' W 080°10'0 0.0
2018-Apr-10 12:30N 26°05' W 080°10'0 0.0
2018-Apr-10 12:00N 26°05' W 080°10'0 0.0
2018-Apr-10 11:30N 26°05' W 080°10'0 0.0
2018-Apr-10 11:00N 26°05' W 080°10'0 0.0
2018-Apr-10 10:30N 26°05' W 080°10'0 0.0
2018-Apr-10 10:00N 26°05' W 080°10'0 0.0
2018-Apr-10 09:30N 26°05' W 080°10'0 0.0
2018-Apr-10 09:00N 26°05' W 080°10'0 0.0
2018-Apr-10 08:30N 26°05' W 080°10'0 0.0
2018-Apr-10 08:00N 26°05' W 080°10'0 0.0
2018-Apr-10 07:21N 26°05' W 080°10'0 0.0
2018-Apr-10 07:00N 26°05' W 080°10'0 0.0
2018-Apr-10 06:30N 26°05' W 080°10'0 0.0
2018-Apr-10 06:00N 26°05' W 080°10'0 0.0
2018-Apr-10 05:30N 26°05' W 080°10'0 0.0
2018-Apr-10 05:00N 26°05' W 080°10'0 0.0
2018-Apr-10 04:30N 26°05' W 080°10'0 0.0
2018-Apr-10 04:00N 26°05' W 080°10'0 0.0
2018-Apr-10 03:30N 26°05' W 080°10'0 0.0
2018-Apr-10 03:00N 26°05' W 080°10'0 0.0
2018-Apr-10 02:30N 26°05' W 080°10'0 0.0
2018-Apr-10 01:54N 26°05' W 080°10'0 0.0
2018-Apr-10 01:24N 26°05' W 080°10'0 0.0
2018-Apr-10 01:00N 26°05' W 080°10'0 0.0
2018-Apr-10 00:27N 26°05' W 080°10'  

Dump ship's entire track history